Saltar al contingut principal

Dades de l'estació automàtica Torres de Segre

Selector estació i data
?
?

Resum diari

22:30 TU
Dades diàries de l'estació meteorològica
Temperatura mitjana 23.1 °C
Temperatura màxima 30.9 °C 16:41 TU
Temperatura mínima 16.7 °C 4:30 TU
Humitat relativa mitjana 60%
Precipitació acumulada 0.0 mm
Ratxa màxima del vent (2 m) 34.2 km/h - 180º 21:04 TU
Irradiació solar global 30.4 MJ/m2

El tram horari està expressat en Temps Universal (TU). Cal sumar una hora en horari d'hivern i dues en horari d'estiu per passar a l'hora oficial.

Torres de Segre

Metadades estació meteorològica
Municipi Torres de Segre
Comarca Segrià
Altitud 215 m
Data alta 02.07.2007
Estat actual Operativa
Dades de període
Període
TU
TM
°C
TX
°C
TN
°C
HRM
%
PPT
mm
VVM (2 m)
km/h
DVM (2 m)
graus
VVX (2 m)
km/h
RS
W/m2
00:00 - 00:30 19.3 19.4 19.3 82 0.0 10.1 181 17.6 0
00:30 - 01:00 19.1 19.3 18.9 82 0.0 10.4 176 15.8 0
01:00 - 01:30 18.7 18.9 18.5 82 0.0 9.4 172 15.5 0
01:30 - 02:00 18.2 18.5 18.0 82 0.0 7.9 171 11.2 0
02:00 - 02:30 17.9 18.0 17.8 81 0.0 9.4 173 14.0 0
02:30 - 03:00 17.5 17.8 17.3 80 0.0 8.3 172 11.5 0
03:00 - 03:30 17.3 17.4 17.0 81 0.0 8.3 171 11.5 0
03:30 - 04:00 17.0 17.1 16.9 82 0.0 8.6 174 12.2 0
04:00 - 04:30 16.9 17.2 16.7 82 0.0 9.4 174 14.4 0
04:30 - 05:00 16.9 17.3 16.7 82 0.0 9.7 178 15.8 19
05:00 - 05:30 17.6 18.0 17.4 79 0.0 9.4 180 13.7 74
05:30 - 06:00 18.5 18.8 18.0 76 0.0 9.7 189 16.9 156
06:00 - 06:30 18.9 19.0 18.8 74 0.0 10.4 205 16.9 250
06:30 - 07:00 19.2 19.4 19.0 72 0.0 10.4 218 17.3 348
07:00 - 07:30 19.7 20.1 19.4 69 0.0 9.0 230 14.4 445
07:30 - 08:00 20.4 20.9 20.1 67 0.0 7.2 233 14.8 533
08:00 - 08:30 21.0 21.8 20.5 63 0.0 6.1 230 13.7 629
08:30 - 09:00 21.7 22.2 21.3 59 0.0 5.4 239 13.3 696
09:00 - 09:30 22.5 23.2 21.8 56 0.0 5.0 251 11.9 754
09:30 - 10:00 23.1 23.7 22.4 54 0.0 5.0 239 13.7 821
10:00 - 10:30 23.9 24.8 23.4 50 0.0 5.4 244 13.0 892
10:30 - 11:00 24.3 25.0 23.7 48 0.0 6.5 230 14.8 930
11:00 - 11:30 25.2 26.3 24.2 46 0.0 5.0 258 13.3 954
11:30 - 12:00 25.7 26.3 24.8 45 0.0 6.1 250 15.1 967
12:00 - 12:30 26.5 27.4 25.9 43 0.0 5.4 257 16.6 966
12:30 - 13:00 27.1 27.7 26.5 41 0.0 6.5 287 16.2 951
13:00 - 13:30 27.6 28.2 27.1 40 0.0 6.1 266 16.9 923
13:30 - 14:00 28.2 28.9 27.7 38 0.0 6.5 270 15.5 882
14:00 - 14:30 28.6 28.9 28.2 38 0.0 7.6 308 16.6 829
14:30 - 15:00 29.0 29.2 28.6 36 0.0 7.2 313 14.8 768
15:00 - 15:30 29.6 30.1 29.2 35 0.0 5.4 285 12.2 694
15:30 - 16:00 29.7 30.2 28.9 35 0.0 6.8 323 15.8 615
16:00 - 16:30 29.9 30.2 29.5 35 0.0 6.5 307 13.7 532
16:30 - 17:00 30.2 30.9 29.9 35 0.0 4.3 275 13.3 459
17:00 - 17:30 29.2 29.9 28.6 42 0.0 11.2 192 21.6 355
17:30 - 18:00 28.4 28.8 27.8 46 0.0 14.0 188 27.0 251
18:00 - 18:30 27.2 27.7 26.8 50 0.0 18.0 182 29.5 159
18:30 - 19:00 26.1 26.7 25.5 54 0.0 19.8 174 31.7 80
19:00 - 19:30 24.9 25.5 24.4 59 0.0 21.2 170 33.5 18
19:30 - 20:00 23.8 24.3 23.4 64 0.0 19.1 175 31.3 0
20:00 - 20:30 23.1 23.4 22.9 66 0.0 18.0 170 28.8 0
20:30 - 21:00 22.7 22.8 22.5 66 0.0 19.4 168 31.3 0
21:00 - 21:30 22.3 22.5 22.2 67 0.0 20.2 168 34.2 0
21:30 - 22:00 22.0 22.2 21.7 69 0.0 12.2 149 29.9 0
22:00 - 22:30 21.9 22.3 21.5 67 0.0 7.6 74 17.6 0
22:30 - 23:00 22.0 22.1 21.7 64 0.0 6.8 111 13.7 0
23:00 - 23:30 (s/d) (s/d) (s/d) (s/d) (s/d) (s/d) (s/d) (s/d) (s/d)

Les dades en taronja només han passat un control de qualitat automàtic. Resta pendent la seva validació definitiva.